Time;durP1;ratioP1;P1;durP2;ratioP2;P2;SDS_P1;SDS_P2;PMS_P1;PMS_P2;Temp;Humidity;BMP_temperature;BMP_pressure;BME280_temperature;BME280_humidity;BME280_pressure;Samples;Min_cycle;Max_cycle;Signal;HPM_P1;HPM_P2
2022/05/16 00:01:28;;;;;;;13.43;5.00;;;14.90;92.70;;;;;;5065198;28;20049;-32
2022/05/16 00:03:55;;;;;;;17.05;5.60;;;14.90;93.00;;;;;;5046416;28;20040;-32
2022/05/16 00:06:22;;;;;;;14.88;4.70;;;14.90;93.00;;;;;;5066666;28;20052;-33
2022/05/16 00:08:48;;;;;;;13.30;4.55;;;14.80;93.10;;;;;;5046570;28;20036;-33
2022/05/16 00:11:16;;;;;;;14.15;4.72;;;14.80;93.00;;;;;;5064723;28;20486;-32
2022/05/16 00:13:43;;;;;;;15.38;5.80;;;14.80;93.10;;;;;;5067298;28;20044;-32
2022/05/16 00:16:10;;;;;;;15.73;5.38;;;14.80;93.40;;;;;;5061583;28;20041;-33
2022/05/16 00:18:36;;;;;;;15.20;5.68;;;14.80;93.50;;;;;;5046810;28;20061;-32
2022/05/16 00:21:03;;;;;;;13.90;5.22;;;14.70;93.50;;;;;;5049691;28;20306;-33
2022/05/16 00:23:30;;;;;;;10.80;4.50;;;14.70;93.50;;;;;;5066436;28;20048;-33
2022/05/16 00:25:56;;;;;;;13.18;5.25;;;14.70;93.20;;;;;;5049498;28;20056;-32
2022/05/16 00:28:24;;;;;;;12.35;5.05;;;14.70;93.60;;;;;;5050085;28;20048;-32
2022/05/16 00:30:51;;;;;;;18.13;5.90;;;14.60;93.40;;;;;;5052460;28;20036;-33
2022/05/16 00:33:18;;;;;;;17.45;5.30;;;14.60;93.60;;;;;;5056003;28;20076;-32
2022/05/16 00:35:45;;;;;;;12.40;4.40;;;14.60;93.70;;;;;;5068579;28;20053;-32
2022/05/16 00:38:11;;;;;;;17.23;5.38;;;14.60;93.80;;;;;;5066732;28;20496;-32
2022/05/16 00:40:38;;;;;;;15.43;4.85;;;14.60;93.90;;;;;;5051695;28;20044;-33
2022/05/16 00:43:06;;;;;;;14.07;5.25;;;14.50;93.90;;;;;;5051361;28;20048;-32
2022/05/16 00:45:34;;;;;;;18.55;6.78;;;14.50;94.10;;;;;;5049138;28;20040;-32
2022/05/16 00:48:02;;;;;;;14.35;5.28;;;14.40;94.40;;;;;;5069284;28;20127;-33
2022/05/16 00:50:28;;;;;;;14.00;5.30;;;14.40;94.40;;;;;;5069041;28;20120;-32
2022/05/16 00:52:55;;;;;;;11.18;4.93;;;14.40;94.40;;;;;;5064344;28;20052;-33
2022/05/16 00:55:24;;;;;;;12.10;4.80;;;14.30;94.20;;;;;;5049872;28;20696;-33
2022/05/16 00:57:52;;;;;;;13.95;5.57;;;14.40;93.80;;;;;;5068225;28;20550;-32
2022/05/16 01:00:21;;;;;;;16.75;6.00;;;14.30;94.20;;;;;;5068162;28;20047;-33
2022/05/16 01:05:47;;;;;;;15.20;5.25;;;14.30;94.40;;;;;;4983156;28;21253;-33
2022/05/16 01:08:15;;;;;;;14.63;6.03;;;14.30;94.20;;;;;;5047051;28;20401;-33
2022/05/16 01:10:42;;;;;;;14.13;4.93;;;14.30;94.20;;;;;;5066067;28;20040;-33
2022/05/16 01:13:09;;;;;;;12.73;4.90;;;14.20;94.30;;;;;;5048338;28;20052;-32
2022/05/16 01:15:37;;;;;;;13.07;5.45;;;14.20;94.20;;;;;;5063888;28;20104;-33
2022/05/16 01:18:05;;;;;;;13.07;4.35;;;14.20;94.40;;;;;;5069285;28;20385;-33
2022/05/16 01:20:42;;;;;;;13.75;4.68;;;14.20;94.40;;;;;;5070230;28;20052;-32
2022/05/16 01:23:12;;;;;;;13.38;5.28;;;14.10;94.20;;;;;;5067275;28;20040;-32
2022/05/16 01:25:39;;;;;;;20.33;5.68;;;14.10;94.20;;;;;;5048810;28;20056;-32
2022/05/16 01:28:06;;;;;;;14.35;5.10;;;14.10;94.50;;;;;;5048455;28;20055;-33
2022/05/16 01:30:33;;;;;;;13.02;4.53;;;14.10;94.70;;;;;;5065646;28;20697;-32
2022/05/16 01:33:00;;;;;;;13.20;4.50;;;14.00;94.60;;;;;;5066790;28;20506;-33
2022/05/16 01:35:28;;;;;;;10.10;3.95;;;14.00;94.40;;;;;;5065856;28;20421;-33
2022/05/16 01:40:40;;;;;;;10.10;4.25;;;13.90;94.50;;;;;;5067591;28;20079;-32
2022/05/16 01:43:07;;;;;;;12.55;4.50;;;13.90;94.40;;;;;;5068245;28;20044;-32
2022/05/16 01:45:34;;;;;;;12.30;4.72;;;13.90;94.40;;;;;;5065140;28;20377;-32
2022/05/16 01:48:00;;;;;;;17.58;5.00;;;13.90;94.40;;;;;;5045944;28;20041;-32
2022/05/16 01:50:27;;;;;;;13.93;5.13;;;13.90;94.50;;;;;;5066267;28;20502;-32
2022/05/16 01:52:54;;;;;;;10.85;4.53;;;13.90;94.50;;;;;;5064855;28;20323;-33
2022/05/16 01:55:21;;;;;;;10.90;4.15;;;13.80;94.30;;;;;;5067592;28;20058;-33
2022/05/16 01:57:49;;;;;;;10.57;3.92;;;13.80;94.10;;;;;;5067119;28;20392;-33
2022/05/16 02:00:16;;;;;;;15.98;4.70;;;13.80;94.40;;;;;;5047155;28;20067;-33
2022/05/16 02:02:44;;;;;;;12.98;4.90;;;13.80;94.60;;;;;;5047154;28;20045;-32
2022/05/16 02:05:12;;;;;;;12.57;4.55;;;13.80;94.60;;;;;;5044906;28;20052;-32
2022/05/16 02:07:39;;;;;;;11.75;5.28;;;13.70;94.60;;;;;;5066837;28;20040;-32
2022/05/16 02:10:06;;;;;;;10.75;4.43;;;13.70;94.80;;;;;;5049868;28;20048;-32
2022/05/16 02:12:33;;;;;;;11.57;4.65;;;13.70;94.80;;;;;;5045967;28;20716;-32
2022/05/16 02:15:01;;;;;;;9.70;3.97;;;13.70;94.90;;;;;;5048138;28;20388;-32
2022/05/16 02:17:28;;;;;;;12.65;4.28;;;13.60;95.00;;;;;;5048045;28;20033;-32
2022/05/16 02:19:55;;;;;;;9.90;4.38;;;13.60;95.00;;;;;;5066024;28;20055;-32
2022/05/16 02:25:15;;;;;;;10.63;4.05;;;13.60;95.10;;;;;;5029816;28;20052;-32
2022/05/16 02:27:43;;;;;;;13.60;4.55;;;13.60;95.00;;;;;;5065281;28;20484;-32
2022/05/16 02:30:12;;;;;;;13.73;4.53;;;13.50;95.00;;;;;;5050153;28;20101;-32
2022/05/16 02:32:39;;;;;;;14.40;4.70;;;13.50;95.10;;;;;;5059886;28;20067;-32
2022/05/16 02:35:06;;;;;;;9.45;4.28;;;13.50;95.10;;;;;;5045969;28;20047;-32
2022/05/16 02:37:32;;;;;;;15.45;4.57;;;13.50;95.10;;;;;;5046017;28;20075;-32
2022/05/16 02:39:59;;;;;;;16.23;4.20;;;13.50;95.20;;;;;;5046546;28;20037;-32
2022/05/16 02:42:26;;;;;;;10.00;4.00;;;13.50;95.10;;;;;;5026229;28;20059;-32
2022/05/16 02:44:53;;;;;;;8.77;3.83;;;13.40;95.00;;;;;;5029377;28;20485;-32
2022/05/16 02:47:22;;;;;;;16.25;4.47;;;13.50;95.00;;;;;;5045153;28;20072;-32
2022/05/16 02:49:48;;;;;;;14.13;4.78;;;13.40;95.10;;;;;;5044836;28;20544;-32
2022/05/16 02:52:15;;;;;;;13.45;4.65;;;13.40;95.10;;;;;;5028530;28;20048;-32
2022/05/16 02:54:42;;;;;;;14.65;4.53;;;13.40;95.10;;;;;;5027538;28;20071;-32
2022/05/16 02:57:09;;;;;;;15.77;4.88;;;13.40;95.20;;;;;;5048266;28;20037;-32
2022/05/16 02:59:35;;;;;;;11.80;4.40;;;13.40;95.40;;;;;;5045039;28;20052;-32
2022/05/16 03:02:03;;;;;;;7.70;3.63;;;13.40;95.10;;;;;;5045795;28;20123;-32
2022/05/16 03:04:31;;;;;;;12.85;3.67;;;13.30;95.10;;;;;;5046136;28;20040;-32
2022/05/16 03:06:58;;;;;;;9.60;3.85;;;13.30;95.00;;;;;;5043217;28;20128;-32
2022/05/16 03:09:25;;;;;;;10.27;4.35;;;13.30;95.00;;;;;;5045444;28;20061;-32
2022/05/16 03:11:52;;;;;;;13.68;4.25;;;13.30;95.00;;;;;;5044595;28;20374;-32
2022/05/16 03:14:19;;;;;;;11.95;4.03;;;13.20;95.00;;;;;;5041328;28;20051;-32
2022/05/16 03:16:46;;;;;;;8.98;3.90;;;13.30;95.00;;;;;;5047773;28;20049;-32
2022/05/16 03:19:13;;;;;;;10.40;4.00;;;13.20;94.80;;;;;;5026398;28;20059;-32
2022/05/16 03:21:41;;;;;;;12.27;4.03;;;13.30;94.90;;;;;;5028773;28;20056;-32
2022/05/16 03:24:09;;;;;;;14.25;4.82;;;13.20;94.70;;;;;;5042095;28;20063;-32
2022/05/16 03:26:35;;;;;;;8.63;3.90;;;13.20;94.80;;;;;;5029800;28;20485;-32
2022/05/16 03:29:02;;;;;;;12.40;4.32;;;13.20;94.90;;;;;;5045392;28;20047;-31
2022/05/16 03:31:29;;;;;;;12.98;4.25;;;13.20;95.30;;;;;;5043422;28;20049;-31
2022/05/16 03:33:56;;;;;;;8.27;3.90;;;13.20;95.00;;;;;;5041755;28;20140;-32
2022/05/16 03:36:22;;;;;;;8.50;3.45;;;13.20;95.00;;;;;;5045366;28;20369;-32
2022/05/16 03:41:35;;;;;;;12.65;3.92;;;13.20;95.00;;;;;;5027131;28;20058;-32
2022/05/16 03:44:02;;;;;;;11.70;4.32;;;13.10;95.10;;;;;;5027136;28;20041;-32
2022/05/16 03:46:28;;;;;;;13.23;4.65;;;13.10;95.10;;;;;;5047061;28;20126;-32
2022/05/16 03:48:55;;;;;;;14.82;4.25;;;13.10;95.10;;;;;;5048779;28;20045;-33
2022/05/16 03:51:22;;;;;;;14.10;4.35;;;13.00;95.20;;;;;;5033081;28;20487;-33
2022/05/16 03:53:50;;;;;;;10.63;3.85;;;13.00;95.20;;;;;;5048303;28;20044;-33
2022/05/16 03:56:20;;;;;;;15.00;4.10;;;13.00;95.10;;;;;;5031675;28;20037;-33
2022/05/16 03:58:47;;;;;;;12.43;4.13;;;12.90;95.10;;;;;;5046961;28;20063;-33
2022/05/16 04:01:14;;;;;;;11.23;3.83;;;13.00;95.20;;;;;;5049680;28;20406;-33
2022/05/16 04:03:40;;;;;;;22.50;4.05;;;13.00;95.10;;;;;;5028384;28;20093;-33
2022/05/16 04:06:07;;;;;;;11.38;3.30;;;13.00;95.10;;;;;;5042206;28;20049;-33
2022/05/16 04:08:34;;;;;;;12.57;4.30;;;13.00;95.20;;;;;;5042185;28;20467;-33
2022/05/16 04:11:03;;;;;;;13.27;3.88;;;12.90;95.20;;;;;;5045376;28;20048;-33
2022/05/16 04:13:30;;;;;;;16.65;3.53;;;13.00;95.20;;;;;;5028361;28;20128;-33
2022/05/16 04:15:56;;;;;;;16.00;3.50;;;12.90;95.30;;;;;;5031789;28;20080;-33
2022/05/16 04:18:23;;;;;;;11.60;3.42;;;12.90;95.30;;;;;;5030001;28;20051;-32
2022/05/16 04:20:50;;;;;;;9.35;3.60;;;12.90;95.20;;;;;;5032683;28;20045;-32
2022/05/16 04:23:16;;;;;;;11.95;3.97;;;13.00;95.20;;;;;;5047520;28;20051;-32
2022/05/16 04:25:43;;;;;;;10.43;3.35;;;13.00;95.30;;;;;;5049359;28;20599;-32
2022/05/16 04:28:11;;;;;;;10.57;3.40;;;13.00;95.30;;;;;;5048458;28;20041;-33
2022/05/16 04:30:39;;;;;;;6.80;3.45;;;13.00;95.30;;;;;;5042406;28;20043;-33
2022/05/16 04:33:06;;;;;;;9.95;3.65;;;13.00;95.30;;;;;;5041643;28;20495;-33
2022/05/16 04:35:33;;;;;;;10.63;3.70;;;12.90;95.40;;;;;;5053655;28;20050;-32
2022/05/16 04:37:59;;;;;;;12.63;3.35;;;13.00;95.50;;;;;;5067956;28;20063;-32
2022/05/16 04:40:26;;;;;;;15.90;3.65;;;13.00;95.50;;;;;;5064989;28;20059;-32
2022/05/16 04:42:52;;;;;;;11.85;3.45;;;13.00;95.50;;;;;;5049969;28;20059;-32
2022/05/16 04:45:21;;;;;;;14.32;3.58;;;12.90;95.50;;;;;;5064482;28;20049;-32
2022/05/16 04:47:49;;;;;;;10.85;3.85;;;12.90;95.50;;;;;;5064844;28;20044;-33
2022/05/16 04:50:17;;;;;;;12.10;3.67;;;12.90;95.60;;;;;;5066889;28;20040;-32
2022/05/16 04:52:43;;;;;;;11.32;3.53;;;13.00;95.70;;;;;;5069159;28;20047;-32
2022/05/16 04:55:10;;;;;;;9.85;3.30;;;13.00;95.70;;;;;;5047721;28;20139;-33
2022/05/16 04:57:37;;;;;;;13.35;3.67;;;13.00;95.70;;;;;;5068996;28;20365;-32
2022/05/16 05:00:05;;;;;;;12.05;3.58;;;13.00;95.60;;;;;;5068965;28;20396;-32
2022/05/16 05:02:33;;;;;;;10.73;3.90;;;13.00;95.60;;;;;;5047997;28;20044;-33
2022/05/16 05:05:00;;;;;;;12.88;3.50;;;13.00;95.70;;;;;;5051371;28;20048;-32
2022/05/16 05:07:26;;;;;;;6.03;3.17;;;13.10;95.70;;;;;;5064758;28;20154;-32
2022/05/16 05:15:22;;;;;;;11.43;4.05;;;13.10;95.60;;;;;;5062966;28;20041;-33
2022/05/16 05:17:50;;;;;;;15.85;4.10;;;13.20;95.50;;;;;;5068265;28;20496;-33
2022/05/16 05:20:17;;;;;;;9.70;3.50;;;13.30;95.50;;;;;;5067071;28;20044;-32
2022/05/16 05:22:45;;;;;;;10.10;3.40;;;13.30;95.50;;;;;;5064821;28;20051;-32
2022/05/16 05:25:13;;;;;;;16.15;3.83;;;13.30;95.50;;;;;;5066201;28;20045;-33
2022/05/16 05:27:40;;;;;;;11.13;3.50;;;13.40;95.50;;;;;;5055600;28;20036;-32
2022/05/16 05:30:08;;;;;;;7.40;3.67;;;13.40;95.40;;;;;;5049514;28;20048;-32
2022/05/16 05:32:34;;;;;;;12.80;4.10;;;13.50;95.40;;;;;;5047418;28;20036;-32
2022/05/16 05:35:02;;;;;;;11.65;3.95;;;13.50;95.30;;;;;;5049887;28;20060;-32
2022/05/16 05:37:29;;;;;;;9.25;3.67;;;13.60;95.40;;;;;;5067250;28;20036;-32
2022/05/16 05:39:58;;;;;;;11.15;3.55;;;13.70;95.30;;;;;;5066380;28;20043;-32
2022/05/16 05:42:25;;;;;;;13.55;4.20;;;13.80;95.30;;;;;;5050048;28;20056;-32
2022/05/16 05:44:52;;;;;;;10.75;3.70;;;13.80;95.20;;;;;;5064580;28;20590;-32
2022/05/16 05:47:19;;;;;;;10.75;3.80;;;14.00;95.10;;;;;;5066526;28;20049;-32
2022/05/16 05:49:45;;;;;;;10.82;3.53;;;14.10;95.00;;;;;;5049419;28;20135;-33
2022/05/16 05:52:15;;;;;;;10.13;3.60;;;14.20;94.70;;;;;;5048317;28;20424;-33
2022/05/16 05:54:42;;;;;;;13.43;3.50;;;14.40;94.70;;;;;;5064879;28;20052;-33
2022/05/16 05:57:08;;;;;;;17.08;4.15;;;14.50;94.50;;;;;;5049450;28;20050;-33
2022/05/16 05:59:35;;;;;;;7.75;3.25;;;14.70;94.40;;;;;;5066923;28;20368;-33
2022/05/16 06:02:02;;;;;;;9.48;3.65;;;14.80;94.10;;;;;;5065624;28;20045;-33
2022/05/16 06:04:28;;;;;;;16.63;3.95;;;14.90;93.90;;;;;;5065810;28;20046;-33
2022/05/16 06:06:55;;;;;;;10.32;3.83;;;15.00;93.90;;;;;;5049057;28;20044;-33
2022/05/16 06:09:23;;;;;;;10.00;3.35;;;15.10;93.80;;;;;;5053330;28;20048;-32
2022/05/16 06:11:50;;;;;;;12.30;3.70;;;15.10;93.60;;;;;;5071287;28;20131;-33
2022/05/16 06:14:17;;;;;;;13.00;3.90;;;15.20;93.70;;;;;;5064112;28;20037;-33
2022/05/16 06:16:43;;;;;;;9.88;3.83;;;15.30;93.50;;;;;;5048339;28;20483;-32
2022/05/16 06:19:10;;;;;;;10.73;3.47;;;15.40;93.50;;;;;;5049883;28;20461;-33
2022/05/16 06:21:37;;;;;;;11.20;3.72;;;15.60;93.30;;;;;;5064771;28;20126;-33
2022/05/16 06:24:04;;;;;;;11.27;3.50;;;15.70;93.20;;;;;;5057654;28;20045;-33
2022/05/16 06:26:32;;;;;;;10.27;3.42;;;15.90;92.70;;;;;;5056567;28;20047;-33
2022/05/16 06:28:59;;;;;;;13.85;3.67;;;16.10;92.50;;;;;;5060397;28;20074;-33
2022/05/16 06:31:25;;;;;;;16.30;4.05;;;16.20;92.20;;;;;;5035423;28;20080;-33
2022/05/16 06:33:52;;;;;;;12.77;3.63;;;16.40;91.90;;;;;;5058587;28;20043;-33
2022/05/16 06:36:19;;;;;;;13.85;4.10;;;16.50;91.70;;;;;;5068175;28;20047;-33
2022/05/16 06:38:46;;;;;;;9.48;3.58;;;16.70;91.60;;;;;;5058724;28;20102;-32
2022/05/16 06:41:12;;;;;;;12.77;3.40;;;16.80;91.30;;;;;;5052637;28;20040;-32
2022/05/16 06:43:40;;;;;;;11.32;3.63;;;16.90;91.30;;;;;;5065220;28;20051;-33
2022/05/16 06:46:07;;;;;;;11.02;3.47;;;17.10;90.60;;;;;;5048866;28;20068;-33
2022/05/16 06:48:35;;;;;;;9.98;3.55;;;17.20;90.60;;;;;;5070289;28;20044;-33
2022/05/16 06:51:01;;;;;;;15.30;3.70;;;17.30;90.50;;;;;;5067495;28;20450;-33
2022/05/16 06:53:29;;;;;;;14.10;3.42;;;17.50;90.50;;;;;;5049795;28;20048;-32
2022/05/16 06:55:56;;;;;;;10.70;3.80;;;17.60;90.10;;;;;;5066667;28;20045;-33
2022/05/16 06:58:24;;;;;;;8.43;3.45;;;17.70;89.70;;;;;;5056791;28;20036;-33
2022/05/16 07:00:52;;;;;;;11.65;4.10;;;17.80;89.50;;;;;;5067825;28;20078;-33
2022/05/16 07:03:18;;;;;;;13.75;3.70;;;17.90;89.30;;;;;;5069398;28;20546;-33
2022/05/16 07:05:46;;;;;;;16.23;3.90;;;18.10;88.90;;;;;;5052802;28;20044;-32
2022/05/16 07:08:13;;;;;;;7.68;3.00;;;18.30;88.40;;;;;;5049390;28;20566;-33
2022/05/16 07:10:39;;;;;;;11.95;3.05;;;18.40;88.40;;;;;;5069119;28;20044;-33
2022/05/16 07:13:08;;;;;;;13.95;3.85;;;18.60;88.00;;;;;;5052676;28;20042;-32
2022/05/16 07:15:34;;;;;;;11.60;3.13;;;18.80;87.00;;;;;;5062052;28;20070;-33
2022/05/16 07:18:02;;;;;;;12.52;3.28;;;19.00;86.50;;;;;;5074889;28;20041;-33
2022/05/16 07:20:29;;;;;;;12.10;3.10;;;19.20;86.70;;;;;;5070941;28;20383;-33
2022/05/16 07:22:58;;;;;;;9.40;2.97;;;19.40;85.80;;;;;;5076756;28;20048;-33
2022/05/16 07:25:26;;;;;;;10.20;3.20;;;19.60;84.90;;;;;;5056726;28;20562;-33
2022/05/16 07:27:59;;;;;;;12.27;3.45;;;19.70;85.40;;;;;;5058563;28;20072;-33
2022/05/16 07:30:26;;;;;;;15.45;3.60;;;19.80;84.20;;;;;;5056027;28;20052;-33
2022/05/16 07:32:53;;;;;;;10.77;3.25;;;20.00;83.30;;;;;;5071357;28;20036;-33
2022/05/16 07:35:23;;;;;;;14.60;3.25;;;20.10;82.50;;;;;;5070636;28;21275;-33
2022/05/16 07:37:51;;;;;;;10.45;3.40;;;20.20;82.40;;;;;;5067542;28;20094;-34
2022/05/16 07:40:18;;;;;;;7.78;2.90;;;20.30;81.40;;;;;;5057744;28;20057;-34
2022/05/16 07:42:45;;;;;;;13.82;3.17;;;20.30;80.70;;;;;;5070474;28;20131;-34
2022/05/16 07:45:12;;;;;;;12.50;3.15;;;20.50;80.60;;;;;;5053889;28;20434;-33
2022/05/16 07:47:38;;;;;;;10.68;3.00;;;20.70;80.20;;;;;;5059143;28;20044;-33
2022/05/16 07:50:07;;;;;;;12.93;3.33;;;20.80;79.80;;;;;;5074996;28;20080;-34
2022/05/16 07:52:35;;;;;;;11.77;3.17;;;20.90;78.40;;;;;;5076219;28;20076;-33
2022/05/16 07:55:02;;;;;;;11.75;3.03;;;21.00;77.90;;;;;;5073193;28;20511;-34
2022/05/16 07:57:29;;;;;;;11.65;3.15;;;21.30;77.00;;;;;;5057670;28;20131;-34
2022/05/16 07:59:55;;;;;;;10.05;3.47;;;21.40;76.30;;;;;;5076997;28;20139;-34
2022/05/16 08:02:22;;;;;;;11.73;3.28;;;21.50;76.10;;;;;;5058497;28;20047;-34
2022/05/16 08:04:49;;;;;;;11.55;3.28;;;21.70;75.10;;;;;;5076409;28;20103;-34
2022/05/16 08:07:15;;;;;;;10.57;3.30;;;21.70;74.70;;;;;;5075963;28;20074;-34
2022/05/16 08:12:29;;;;;;;9.52;3.13;;;22.10;74.00;;;;;;5036590;28;20382;-34
2022/05/16 08:14:56;;;;;;;11.27;3.22;;;22.30;73.10;;;;;;5019345;28;20388;-34
2022/05/16 08:17:22;;;;;;;11.57;3.58;;;22.40;72.60;;;;;;5037025;28;20045;-34
2022/05/16 08:19:49;;;;;;;10.52;3.00;;;22.40;71.90;;;;;;5053198;28;20071;-34
2022/05/16 08:22:17;;;;;;;10.15;3.38;;;22.50;71.40;;;;;;5056756;28;20429;-34
2022/05/16 08:24:45;;;;;;;15.27;2.88;;;22.60;70.90;;;;;;5056024;28;20080;-34
2022/05/16 08:27:12;;;;;;;11.88;2.88;;;22.80;71.00;;;;;;5035343;28;20408;-34
2022/05/16 08:29:38;;;;;;;13.98;3.22;;;23.00;70.10;;;;;;5051803;28;20140;-34
2022/05/16 08:32:07;;;;;;;9.75;3.25;;;23.20;70.50;;;;;;5033553;28;20049;-34
2022/05/16 08:34:34;;;;;;;10.65;3.30;;;23.30;69.00;;;;;;5034475;28;20051;-34
2022/05/16 08:40:01;;;;;;;14.93;3.33;;;23.50;69.20;;;;;;5052320;28;20049;-34
2022/05/16 08:42:32;;;;;;;10.82;3.25;;;23.70;69.30;;;;;;5051829;28;20127;-34
2022/05/16 08:45:00;;;;;;;11.63;3.53;;;23.90;68.20;;;;;;5050750;28;20384;-34
2022/05/16 08:47:39;;;;;;;12.10;3.25;;;24.00;67.20;;;;;;5047749;28;20382;-34
2022/05/16 08:50:08;;;;;;;13.52;2.75;;;24.00;67.10;;;;;;5024281;28;20052;-34
2022/05/16 08:52:37;;;;;;;11.63;3.08;;;24.10;66.30;;;;;;5040703;28;20051;-34
2022/05/16 08:55:08;;;;;;;10.90;2.67;;;24.10;65.70;;;;;;5049470;28;20480;-33
2022/05/16 08:57:36;;;;;;;8.50;2.57;;;24.30;65.60;;;;;;5035786;28;20470;-34
2022/05/16 09:00:06;;;;;;;12.95;3.10;;;24.50;65.20;;;;;;5045578;28;20052;-36
2022/05/16 09:02:33;;;;;;;13.13;3.10;;;24.70;64.50;;;;;;5049811;28;20044;-34
2022/05/16 09:05:05;;;;;;;13.32;4.13;;;24.70;64.20;;;;;;5051812;28;20126;-34
2022/05/16 09:07:35;;;;;;;11.68;3.22;;;24.90;64.60;;;;;;5023362;28;20055;-34
2022/05/16 09:10:09;;;;;;;10.27;2.72;;;24.90;63.20;;;;;;5051464;28;20049;-34
2022/05/16 09:12:39;;;;;;;14.90;2.90;;;25.00;63.20;;;;;;5035583;28;20091;-34
2022/05/16 09:15:14;;;;;;;15.48;3.47;;;25.00;63.50;;;;;;5022337;28;20477;-34
2022/05/16 09:17:50;;;;;;;10.07;3.05;;;25.20;63.40;;;;;;5047030;28;20051;-34
2022/05/16 09:20:22;;;;;;;10.43;3.15;;;25.30;63.30;;;;;;5043616;28;20049;-34
2022/05/16 09:22:52;;;;;;;10.38;3.35;;;25.40;62.20;;;;;;5025750;28;20049;-34
2022/05/16 09:25:21;;;;;;;10.45;3.28;;;25.40;61.80;;;;;;5043199;28;20047;-34
2022/05/16 09:30:35;;;;;;;12.23;3.58;;;25.60;61.50;;;;;;5041621;28;20424;-33
2022/05/16 09:33:05;;;;;;;10.32;3.42;;;25.60;61.00;;;;;;5043310;28;20053;-34
2022/05/16 09:35:38;;;;;;;10.07;3.20;;;25.70;60.90;;;;;;5043741;28;20571;-34
2022/05/16 09:38:06;;;;;;;10.25;3.22;;;25.80;61.90;;;;;;5041404;28;20063;-43
2022/05/16 09:40:37;;;;;;;10.02;2.83;;;26.00;61.50;;;;;;5023708;28;20055;-42
2022/05/16 09:43:07;;;;;;;9.18;2.78;;;26.00;61.30;;;;;;5038986;28;20431;-43
2022/05/16 09:45:34;;;;;;;13.40;3.30;;;26.30;61.90;;;;;;5023364;28;20041;-44
2022/05/16 09:48:01;;;;;;;10.50;2.83;;;26.50;62.20;;;;;;5040986;28;20634;-44
2022/05/16 09:50:28;;;;;;;13.93;3.60;;;26.70;60.60;;;;;;5044685;28;20047;-44
2022/05/16 09:53:11;;;;;;;16.55;3.60;;;26.80;59.50;;;;;;5043422;28;20044;-43
2022/05/16 09:55:45;;;;;;;10.73;3.33;;;27.00;58.90;;;;;;5043463;28;20052;-43
2022/05/16 09:58:14;;;;;;;8.93;2.95;;;27.20;58.30;;;;;;5043636;28;20075;-44
2022/05/16 10:00:45;;;;;;;10.82;3.05;;;27.30;58.30;;;;;;5043546;28;20056;-43
2022/05/16 10:03:20;;;;;;;12.32;3.10;;;27.40;58.00;;;;;;5041781;28;20055;-43
2022/05/16 10:05:47;;;;;;;14.95;3.33;;;27.50;57.10;;;;;;5043018;28;20123;-44
2022/05/16 10:08:17;;;;;;;9.27;3.53;;;27.50;57.00;;;;;;5039691;28;20045;-44
2022/05/16 10:10:45;;;;;;;9.30;3.05;;;27.70;56.20;;;;;;5026550;28;20045;-44
2022/05/16 10:13:12;;;;;;;10.50;3.75;;;27.80;55.80;;;;;;5047380;28;20053;-44
2022/05/16 10:15:39;;;;;;;11.55;3.15;;;27.80;55.80;;;;;;5043518;28;20044;-43
2022/05/16 10:18:10;;;;;;;10.18;2.95;;;27.80;55.60;;;;;;5030892;28;20041;-43
2022/05/16 10:20:37;;;;;;;;;;;27.80;55.50;;;;;;5042985;28;20076;-44
2022/05/16 10:23:05;;;;;;;16.88;4.47;;;27.70;55.90;;;;;;5048500;28;19956;-44
2022/05/16 10:25:36;;;;;;;10.93;3.40;;;27.60;54.80;;;;;;5042886;28;20048;-44
2022/05/16 10:28:05;;;;;;;;;;;27.50;54.60;;;;;;5046940;28;20056;-43
2022/05/16 10:33:24;;;;;;;11.27;3.35;;;27.40;55.50;;;;;;5046517;28;19928;-44
2022/05/16 10:33:24;;;;;;;11.98;3.25;;;27.40;55.40;;;;;;5045592;28;20041;-43
2022/05/16 10:35:52;;;;;;;11.27;3.40;;;27.30;55.60;;;;;;5031685;28;20136;-43
2022/05/16 10:38:22;;;;;;;11.82;2.92;;;27.30;55.40;;;;;;5045418;28;20072;-43
2022/05/16 10:40:50;;;;;;;13.10;3.63;;;27.40;55.30;;;;;;5025710;28;20057;-43
2022/05/16 10:43:26;;;;;;;9.65;3.55;;;27.40;55.80;;;;;;5047215;28;20397;-43
2022/05/16 10:45:54;;;;;;;17.75;3.53;;;27.30;55.20;;;;;;5045090;28;20102;-43
2022/05/16 10:48:25;;;;;;;11.63;3.28;;;27.20;56.50;;;;;;5045832;28;20072;-43
2022/05/16 10:50:53;;;;;;;13.93;3.30;;;27.20;56.00;;;;;;5043515;28;20432;-44
2022/05/16 10:53:23;;;;;;;12.57;3.03;;;27.20;56.80;;;;;;5048163;28;20081;-44
2022/05/16 10:55:54;;;;;;;10.10;3.47;;;27.10;55.80;;;;;;5043992;28;20055;-43
2022/05/16 10:58:27;;;;;;;10.00;3.30;;;27.00;56.00;;;;;;5043828;28;20392;-44
2022/05/16 11:00:58;;;;;;;13.30;3.85;;;26.70;56.70;;;;;;5030396;28;20418;-43
2022/05/16 11:03:39;;;;;;;20.13;4.15;;;26.60;58.40;;;;;;5050013;28;20041;-43
2022/05/16 11:06:27;;;;;;;15.85;4.15;;;26.50;59.90;;;;;;5052901;28;20041;-43
2022/05/16 11:09:02;;;;;;;9.73;3.20;;;26.20;61.90;;;;;;5044465;28;20055;-42
2022/05/16 11:11:31;;;;;;;12.57;4.25;;;26.00;63.50;;;;;;5072819;28;20048;-43
2022/05/16 11:14:05;;;;;;;12.20;4.10;;;25.90;65.10;;;;;;5072144;28;20049;-43
2022/05/16 11:16:33;;;;;;;12.93;4.20;;;25.90;65.60;;;;;;5072908;28;20141;-42
2022/05/16 11:19:12;;;;;;;13.57;3.75;;;25.90;66.10;;;;;;5037642;28;20048;-43
2022/05/16 11:21:43;;;;;;;14.63;4.18;;;25.80;67.20;;;;;;5052575;28;20056;-43
2022/05/16 11:24:12;;;;;;;10.35;4.30;;;25.80;68.20;;;;;;5052605;28;20044;-43
2022/05/16 11:26:42;;;;;;;18.77;4.03;;;25.70;68.00;;;;;;5052336;28;20049;-42
2022/05/16 11:29:18;;;;;;;12.93;3.80;;;25.70;68.00;;;;;;5068966;28;20055;-43
2022/05/16 11:31:55;;;;;;;15.85;3.80;;;25.80;68.30;;;;;;5034918;28;20090;-43
2022/05/16 11:34:25;;;;;;;11.50;3.63;;;25.80;69.60;;;;;;5052407;28;20045;-43
2022/05/16 11:36:54;;;;;;;13.15;3.80;;;25.80;70.80;;;;;;5052401;28;20045;-43
2022/05/16 11:39:23;;;;;;;12.40;3.90;;;25.80;69.80;;;;;;5054034;28;20045;-43
2022/05/16 11:41:55;;;;;;;8.52;3.47;;;25.90;70.60;;;;;;5052175;28;20049;-43
2022/05/16 11:44:30;;;;;;;15.07;4.20;;;25.90;69.70;;;;;;5052340;28;20135;-43
2022/05/16 11:47:01;;;;;;;10.93;3.72;;;25.90;69.50;;;;;;5034880;28;20397;-43
2022/05/16 11:49:30;;;;;;;;;;;25.90;69.80;;;;;;5035189;28;20041;-43
2022/05/16 11:52:05;;;;;;;12.90;3.95;;;25.90;70.00;;;;;;5051910;28;19917;-44
2022/05/16 11:54:34;;;;;;;13.98;4.20;;;25.90;69.90;;;;;;5053065;28;20045;-44
2022/05/16 12:02:40;;;;;;;10.65;3.65;;;25.90;69.60;;;;;;5052009;28;20045;-43
2022/05/16 12:05:14;;;;;;;10.55;3.45;;;25.90;69.50;;;;;;5043312;28;20071;-44
2022/05/16 12:07:42;;;;;;;8.60;3.10;;;25.90;69.40;;;;;;5055520;28;20073;-43
2022/05/16 12:10:23;;;;;;;6.72;2.33;;;25.80;68.60;;;;;;5073913;28;20400;-43
2022/05/16 12:13:17;;;;;;;9.95;2.60;;;25.80;68.40;;;;;;5058298;28;20044;-43
2022/05/16 12:15:46;;;;;;;11.73;2.80;;;25.70;68.90;;;;;;5055910;28;20472;-43
2022/05/16 12:18:32;;;;;;;6.45;2.58;;;25.70;68.70;;;;;;5058298;28;20059;-43
2022/05/16 12:21:05;;;;;;;6.70;2.78;;;25.70;68.70;;;;;;5037981;28;20084;-44
2022/05/16 12:24:08;;;;;;;9.38;3.22;;;25.70;68.90;;;;;;5054431;28;20470;-43
2022/05/16 12:27:04;;;;;;;6.82;2.53;;;25.80;69.10;;;;;;5051641;28;20511;-43
2022/05/16 12:29:38;;;;;;;8.20;3.10;;;25.80;69.20;;;;;;5067677;28;20041;-43
2022/05/16 12:32:06;;;;;;;9.30;3.67;;;25.90;69.00;;;;;;5017920;28;20045;-44
2022/05/16 12:34:44;;;;;;;7.95;3.13;;;25.90;68.70;;;;;;5035609;28;20052;-43
2022/05/16 12:37:12;;;;;;;9.65;3.03;;;26.10;67.60;;;;;;5060057;28;20411;-43
2022/05/16 12:39:40;;;;;;;7.40;3.58;;;26.10;67.50;;;;;;5075391;28;20036;-44
2022/05/16 12:42:17;;;;;;;12.15;3.25;;;26.30;67.60;;;;;;5056180;28;20056;-44
2022/05/16 12:44:47;;;;;;;9.57;3.40;;;26.50;67.80;;;;;;5033201;28;20063;-43
2022/05/16 12:47:57;;;;;;;9.60;2.90;;;26.50;65.90;;;;;;5063076;28;20389;-44
2022/05/16 12:51:02;;;;;;;8.10;2.97;;;26.50;65.70;;;;;;5032299;28;20053;-43
2022/05/16 12:53:46;;;;;;;7.90;2.63;;;26.60;65.60;;;;;;5019318;28;20523;-44
2022/05/16 12:56:15;;;;;;;7.38;2.85;;;26.60;65.10;;;;;;5050582;28;20037;-43
2022/05/16 12:58:44;;;;;;;8.90;3.17;;;26.60;65.60;;;;;;5037490;28;20056;-43
2022/05/16 13:01:21;;;;;;;7.25;2.88;;;26.70;65.80;;;;;;5038699;28;20045;-43
2022/05/16 13:03:53;;;;;;;9.35;3.25;;;26.70;65.80;;;;;;5049907;28;20056;-43
2022/05/16 13:06:35;;;;;;;8.90;3.13;;;26.70;65.20;;;;;;5041833;28;20047;-43
2022/05/16 13:09:04;;;;;;;7.55;2.95;;;26.70;66.90;;;;;;5034958;28;20053;-43
2022/05/16 13:11:33;;;;;;;7.97;3.70;;;26.70;65.70;;;;;;5053563;28;20076;-43
2022/05/16 13:14:06;;;;;;;9.10;3.70;;;26.80;64.90;;;;;;5042243;28;20380;-44
2022/05/16 13:16:33;;;;;;;11.43;3.80;;;26.70;65.20;;;;;;5032039;28;20461;-44
2022/05/16 13:19:03;;;;;;;10.07;4.10;;;26.70;65.10;;;;;;5028317;28;20044;-44
2022/05/16 13:21:38;;;;;;;8.20;3.85;;;26.60;65.40;;;;;;5052852;28;20044;-43